Aviation Digital Data Service (ADDS)

Output produced by METARs form (0425 UTC 08 July 2015)
found at http://www.aviationweather.gov/adds/metars/
 
KDFW 080255Z 0803/0906 18013KT P6SM BKN060 
     FM080700 18014KT P6SM SHRA BKN025 
     FM081500 19013KT P6SM VCSH BKN040 
     FM081700 18015KT P6SM SCT050